createdAt,value
2018-01-12T00:01:45.293Z,51.20
2018-01-12T00:04:18.286Z,49.67
2018-01-12T00:06:45.032Z,40.87
2018-01-12T00:09:12.688Z,39.80
2018-01-12T00:11:39.430Z,42.03
2018-01-12T00:14:06.224Z,38.30
2018-01-12T00:16:51.503Z,38.23
2018-01-12T00:19:30.981Z,39.17
2018-01-12T00:21:58.678Z,38.33
2018-01-12T00:24:27.348Z,35.73
2018-01-12T00:26:54.128Z,38.23
2018-01-12T00:29:22.813Z,35.00
2018-01-12T00:31:50.528Z,39.20
2018-01-12T00:34:21.802Z,33.50
2018-01-12T00:36:52.891Z,33.77
2018-01-12T00:39:21.582Z,38.03
2018-01-12T00:41:48.308Z,34.63
2018-01-12T00:44:15.120Z,35.27
2018-01-12T00:46:42.818Z,34.10
2018-01-12T00:49:14.587Z,33.17
2018-01-12T00:51:42.016Z,34.63
2018-01-12T00:54:12.369Z,29.23
2018-01-12T00:56:45.918Z,33.90
2018-01-12T01:01:59.026Z,35.10
2018-01-12T01:07:11.066Z,37.10
2018-01-12T01:09:37.811Z,37.13
2018-01-12T01:12:06.447Z,37.00
2018-01-12T01:14:34.142Z,34.67
2018-01-12T01:17:01.857Z,33.37
2018-01-12T01:19:33.470Z,32.50
2018-01-12T01:22:00.285Z,34.63
2018-01-12T01:24:26.988Z,36.30
2018-01-12T01:26:57.969Z,34.43
2018-01-12T01:29:24.786Z,35.37
2018-01-12T01:31:51.591Z,38.67
2018-01-12T01:34:20.303Z,34.70
2018-01-12T01:36:55.756Z,37.50
2018-01-12T01:39:22.454Z,36.53
2018-01-12T01:41:53.286Z,33.63
2018-01-12T01:44:25.585Z,37.23
2018-01-12T01:46:54.363Z,38.43
2018-01-12T01:49:23.109Z,35.20
2018-01-12T01:51:55.341Z,34.07
2018-01-12T01:54:26.076Z,36.90
2018-01-12T01:56:54.799Z,33.70
2018-01-12T01:59:22.782Z,30.53
2018-01-12T02:04:36.304Z,32.00
2018-01-12T02:07:07.972Z,33.63
2018-01-12T02:09:39.544Z,26.87
2018-01-12T02:12:07.303Z,29.67
2018-01-12T02:14:38.451Z,32.40
2018-01-12T02:17:09.424Z,30.73
2018-01-12T02:19:37.134Z,32.93
2018-01-12T02:22:08.650Z,31.20
2018-01-12T02:24:41.362Z,32.17
2018-01-12T02:27:12.960Z,29.40
2018-01-12T02:35:30.002Z,31.10
2018-01-12T02:37:57.802Z,34.10
2018-01-12T02:43:23.877Z,28.77
2018-01-12T02:51:30.650Z,29.57
2018-01-12T02:54:06.248Z,29.70
2018-01-12T02:56:32.934Z,35.03
2018-01-12T02:59:03.455Z,30.77
2018-01-12T03:01:36.070Z,29.90
2018-01-12T03:04:21.390Z,29.10
2018-01-12T03:06:48.102Z,26.50
2018-01-12T03:09:15.534Z,29.63
2018-01-12T03:11:43.191Z,29.03
2018-01-12T03:14:10.924Z,25.77
2018-01-12T03:16:52.417Z,30.53
2018-01-12T03:19:19.142Z,27.33
2018-01-12T03:21:47.787Z,24.77
2018-01-12T03:24:19.994Z,28.30
2018-01-12T03:27:03.986Z,25.97
2018-01-12T03:29:32.730Z,31.07
2018-01-12T03:34:52.056Z,26.80
2018-01-12T03:37:22.931Z,30.07
2018-01-12T03:42:36.916Z,27.60
2018-01-12T03:45:08.000Z,29.17
2018-01-12T03:47:35.710Z,28.63
2018-01-12T03:50:04.414Z,28.03
2018-01-12T03:52:35.586Z,30.93
2018-01-12T03:55:13.858Z,28.17
2018-01-12T03:57:44.832Z,30.57
2018-01-12T04:00:16.424Z,31.33
2018-01-12T04:02:45.115Z,32.40
2018-01-12T04:05:12.829Z,38.43
2018-01-12T04:07:48.894Z,40.70
2018-01-12T04:10:15.609Z,34.80
2018-01-12T04:12:42.298Z,32.03
2018-01-12T04:18:13.116Z,37.60
2018-01-12T04:20:46.558Z,39.23
2018-01-12T04:23:13.298Z,40.17
2018-01-12T04:31:26.151Z,33.27
2018-01-12T04:34:02.517Z,24.03
2018-01-12T04:36:47.365Z,31.80
2018-01-12T04:39:32.951Z,33.17
2018-01-12T04:42:11.233Z,34.30
2018-01-12T04:47:27.440Z,39.17
2018-01-12T04:49:56.116Z,32.60
2018-01-12T04:52:22.852Z,30.87
2018-01-12T04:54:51.583Z,30.80
2018-01-12T04:57:18.322Z,33.77
2018-01-12T05:02:36.171Z,30.47
2018-01-12T05:05:08.545Z,29.97
2018-01-12T05:07:35.265Z,32.40
2018-01-12T05:10:07.539Z,29.33
2018-01-12T05:12:34.253Z,30.10
2018-01-12T05:15:12.694Z,28.63
2018-01-12T05:20:24.540Z,20.47
2018-01-12T05:22:55.961Z,26.50
2018-01-12T05:25:26.517Z,23.00
2018-01-12T05:27:54.179Z,24.73
2018-01-12T05:30:26.308Z,23.40
2018-01-12T05:32:58.310Z,22.53
2018-01-12T05:35:26.063Z,23.20
2018-01-12T05:37:52.840Z,23.67
2018-01-12T05:40:19.532Z,22.60
2018-01-12T05:42:48.306Z,20.97
2018-01-12T05:45:19.922Z,25.57
2018-01-12T05:47:50.619Z,24.97
2018-01-12T05:50:18.340Z,20.67
2018-01-12T05:52:47.010Z,27.87
2018-01-12T05:55:14.704Z,23.10
2018-01-12T05:57:41.460Z,22.00
2018-01-12T06:00:13.554Z,23.37
2018-01-12T06:05:44.448Z,24.80
2018-01-12T06:08:14.370Z,23.93
2018-01-12T06:10:41.129Z,25.27
2018-01-12T06:13:11.459Z,22.17
2018-01-12T06:15:51.523Z,24.83
2018-01-12T06:18:19.830Z,22.80
2018-01-12T06:20:59.801Z,23.37
2018-01-12T06:23:31.155Z,24.33
2018-01-12T06:25:58.110Z,24.63
2018-01-12T06:28:25.861Z,26.50
2018-01-12T06:30:54.527Z,27.67
2018-01-12T06:33:21.270Z,23.67
2018-01-12T06:35:48.015Z,18.50
2018-01-12T06:38:14.741Z,21.70
2018-01-12T06:43:27.711Z,21.83
2018-01-12T06:45:54.450Z,28.90
2018-01-12T06:48:23.974Z,26.57
2018-01-12T06:53:36.700Z,24.30
2018-01-12T06:56:08.472Z,28.93
2018-01-12T06:58:39.273Z,29.67
2018-01-12T07:01:11.806Z,24.83
2018-01-12T07:03:47.203Z,31.93
2018-01-12T07:06:23.415Z,29.33
2018-01-12T07:11:37.693Z,27.13
2018-01-12T07:14:09.042Z,25.87
2018-01-12T07:16:54.969Z,33.37
2018-01-12T07:19:22.686Z,28.93
2018-01-12T07:24:48.889Z,29.53
2018-01-12T07:27:16.602Z,28.80
2018-01-12T07:29:44.257Z,27.03
2018-01-12T07:32:15.414Z,30.70
2018-01-12T07:34:43.411Z,24.53
2018-01-12T07:39:56.817Z,24.47
2018-01-12T07:42:28.391Z,27.10
2018-01-12T07:44:56.073Z,25.00
2018-01-12T07:47:22.811Z,25.40
2018-01-12T07:49:57.248Z,25.77
2018-01-12T07:52:25.019Z,26.37
2018-01-12T07:54:51.731Z,25.47
2018-01-12T07:57:18.427Z,27.17
2018-01-12T07:59:55.783Z,26.03
2018-01-12T08:02:29.078Z,31.73
2018-01-12T08:04:59.329Z,26.30
2018-01-12T08:07:31.886Z,27.17
2018-01-12T08:12:43.710Z,27.13
2018-01-12T08:15:10.456Z,29.90
2018-01-12T08:17:46.138Z,29.07
2018-01-12T08:20:13.870Z,25.30
2018-01-12T08:22:41.556Z,29.40
2018-01-12T08:25:08.305Z,26.60
2018-01-12T08:27:35.009Z,26.77
2018-01-12T08:32:49.433Z,33.57
2018-01-12T08:38:10.333Z,33.07
2018-01-12T08:40:42.534Z,28.90
2018-01-12T08:43:18.677Z,29.77
2018-01-12T08:45:46.393Z,21.40
2018-01-12T08:48:19.824Z,24.47
2018-01-12T08:50:53.859Z,31.90
2018-01-12T08:53:24.192Z,32.83
2018-01-12T08:55:50.931Z,29.13
2018-01-12T08:58:18.419Z,33.53
2018-01-12T09:00:51.079Z,28.27
2018-01-12T09:03:19.822Z,25.73
2018-01-12T09:05:46.522Z,27.00
2018-01-12T09:08:13.258Z,21.17
2018-01-12T09:10:45.863Z,24.67
2018-01-12T09:13:19.313Z,26.60
2018-01-12T09:15:46.088Z,24.87
2018-01-12T09:18:22.710Z,28.67
2018-01-12T09:20:50.125Z,27.23
2018-01-12T09:23:24.703Z,22.77
2018-01-12T09:25:51.413Z,31.40
2018-01-12T09:28:18.223Z,28.97
2018-01-12T09:30:44.935Z,24.43
2018-01-12T09:33:11.652Z,31.03
2018-01-12T09:35:38.754Z,27.67
2018-01-12T09:38:11.372Z,26.73
2018-01-12T09:40:55.890Z,26.33
2018-01-12T09:43:23.202Z,27.63
2018-01-12T09:45:51.934Z,28.07
2018-01-12T09:48:25.243Z,32.93
2018-01-12T09:50:55.130Z,29.10
2018-01-12T09:53:26.826Z,28.60
2018-01-12T09:55:53.575Z,25.57
2018-01-12T09:58:33.491Z,33.57
2018-01-12T10:01:07.709Z,22.67
2018-01-12T10:03:40.583Z,19.93
2018-01-12T10:09:01.310Z,30.50
2018-01-12T10:11:29.061Z,30.67
2018-01-12T10:20:03.292Z,33.80
2018-01-12T10:22:35.621Z,24.20
2018-01-12T10:25:14.263Z,29.97
2018-01-12T10:27:41.975Z,31.37
2018-01-12T10:30:14.643Z,29.60
2018-01-12T10:32:44.310Z,31.70
2018-01-12T10:35:21.712Z,31.77
2018-01-12T10:37:58.526Z,28.50
2018-01-12T10:40:38.221Z,28.87
2018-01-12T10:45:53.070Z,20.67
2018-01-12T10:48:25.936Z,25.83
2018-01-12T10:51:02.497Z,31.90
2018-01-12T10:53:30.860Z,32.80
2018-01-12T10:56:03.450Z,27.83
2018-01-12T10:58:34.173Z,28.00
2018-01-12T11:01:00.902Z,32.90
2018-01-12T11:03:27.596Z,24.47
2018-01-12T11:05:55.302Z,19.57
2018-01-12T11:08:21.995Z,28.70
2018-01-12T11:13:35.227Z,27.33
2018-01-12T11:16:02.893Z,26.80
2018-01-12T11:21:16.636Z,25.03
2018-01-12T11:23:44.312Z,24.63
2018-01-12T11:26:19.435Z,24.60
2018-01-12T11:28:50.271Z,21.03
2018-01-12T11:31:18.995Z,23.37
2018-01-12T11:33:50.930Z,22.60
2018-01-12T11:36:19.657Z,21.93
2018-01-12T11:38:51.345Z,24.33
2018-01-12T11:41:23.855Z,19.97
2018-01-12T11:43:51.754Z,21.13
2018-01-12T11:46:19.404Z,21.07
2018-01-12T11:48:47.108Z,22.73
2018-01-12T11:51:26.364Z,20.87
2018-01-12T12:02:14.084Z,19.57
2018-01-12T12:04:46.392Z,18.73
2018-01-12T12:07:21.201Z,12.37
2018-01-12T12:12:33.323Z,19.87
2018-01-12T12:15:02.091Z,17.90
2018-01-12T12:17:29.208Z,18.27
2018-01-12T12:19:55.958Z,17.13
2018-01-12T12:22:23.624Z,18.60
2018-01-12T12:24:50.339Z,17.97
2018-01-12T12:27:17.857Z,18.60
2018-01-12T12:29:45.812Z,16.90
2018-01-12T12:32:14.375Z,21.03
2018-01-12T12:34:43.288Z,18.40
2018-01-12T12:37:10.045Z,14.83
2018-01-12T12:39:54.861Z,20.33
2018-01-12T12:42:22.583Z,15.57
2018-01-12T12:47:39.079Z,18.93
2018-01-12T12:50:09.959Z,13.50
2018-01-12T12:52:37.736Z,20.40
2018-01-12T12:55:10.318Z,19.40
2018-01-12T12:57:38.079Z,23.37
2018-01-12T13:02:50.194Z,22.57
2018-01-12T13:05:17.954Z,23.57
2018-01-12T13:10:36.461Z,21.43
2018-01-12T13:13:04.167Z,25.67
2018-01-12T13:15:45.208Z,23.07
2018-01-12T13:20:57.155Z,22.77
2018-01-12T13:23:26.634Z,18.87
2018-01-12T13:25:54.341Z,23.43
2018-01-12T13:28:38.979Z,26.47
2018-01-12T13:31:05.685Z,20.73
2018-01-12T13:33:32.407Z,20.50
2018-01-12T13:36:01.139Z,20.83
2018-01-12T13:38:27.832Z,18.50
2018-01-12T13:46:33.825Z,25.47
2018-01-12T13:49:02.541Z,25.13
2018-01-12T13:51:36.063Z,20.37
2018-01-12T13:54:04.446Z,18.43
2018-01-12T13:56:33.125Z,24.70
2018-01-12T13:59:00.783Z,27.13
2018-01-12T14:01:27.510Z,25.83
2018-01-12T14:03:54.198Z,25.60
2018-01-12T14:06:20.901Z,25.33
2018-01-12T14:08:49.616Z,23.67
2018-01-12T14:11:17.107Z,24.00
2018-01-12T14:13:43.871Z,35.83
2018-01-12T14:16:11.570Z,24.40
2018-01-12T14:18:47.135Z,29.57
2018-01-12T14:24:01.011Z,31.27
2018-01-12T14:26:27.719Z,23.77
2018-01-12T14:29:08.611Z,28.90
2018-01-12T14:31:38.898Z,20.80
2018-01-12T14:34:05.699Z,24.50
2018-01-12T14:36:32.435Z,25.97
2018-01-12T14:38:59.417Z,23.10
2018-01-12T14:41:31.311Z,25.00
2018-01-12T14:43:59.067Z,30.97
2018-01-12T14:46:26.413Z,29.37
2018-01-12T14:48:53.109Z,26.70
2018-01-12T14:51:20.705Z,29.73
2018-01-12T14:54:03.578Z,25.47
2018-01-12T14:56:30.302Z,26.17
2018-01-12T14:58:56.997Z,32.27
2018-01-12T15:01:28.999Z,30.37
2018-01-12T15:03:55.701Z,36.63
2018-01-12T15:06:22.399Z,24.37
2018-01-12T15:08:51.439Z,33.27
2018-01-12T15:11:18.142Z,29.57
2018-01-12T15:13:46.531Z,27.50
2018-01-12T15:16:13.347Z,29.63
2018-01-12T15:21:27.471Z,29.40
2018-01-12T15:23:54.224Z,29.63
2018-01-12T15:26:21.592Z,30.50
2018-01-12T15:28:48.983Z,30.20
2018-01-12T15:31:15.695Z,30.40
2018-01-12T15:36:17.376Z,30.20
2018-01-12T15:38:44.057Z,29.83
2018-01-12T15:41:10.756Z,30.67
2018-01-12T15:43:37.482Z,33.60
2018-01-12T15:46:04.179Z,34.93
2018-01-12T15:48:30.893Z,30.53
2018-01-12T15:50:57.611Z,35.27
2018-01-12T15:53:26.400Z,32.37
2018-01-12T15:55:53.106Z,33.10
2018-01-12T15:58:19.835Z,38.07
2018-01-12T16:00:46.521Z,36.90
2018-01-12T16:03:13.237Z,38.07
2018-01-12T16:05:40.228Z,38.70
2018-01-12T16:08:07.022Z,29.47
2018-01-12T16:10:33.747Z,33.10
2018-01-12T16:13:00.569Z,33.93
2018-01-12T16:15:27.331Z,36.13
2018-01-12T16:17:55.056Z,31.50
2018-01-12T16:20:21.803Z,33.27
2018-01-12T16:22:48.507Z,32.57
2018-01-12T16:25:15.247Z,36.00
2018-01-12T16:27:41.969Z,34.53
2018-01-12T16:30:08.671Z,33.30
2018-01-12T16:32:35.408Z,30.43
2018-01-12T16:35:02.140Z,34.20
2018-01-12T16:37:29.286Z,30.40
2018-01-12T16:39:58.000Z,35.63
2018-01-12T16:42:24.856Z,37.00
2018-01-12T16:44:51.685Z,26.23
2018-01-12T16:47:18.372Z,33.00
2018-01-12T16:49:45.194Z,31.10
2018-01-12T16:52:11.871Z,28.90
2018-01-12T16:54:38.568Z,32.10
2018-01-12T16:57:05.296Z,36.13
2018-01-12T16:59:32.710Z,25.80
2018-01-12T17:01:59.406Z,34.07
2018-01-12T17:04:26.162Z,32.93
2018-01-12T17:06:52.852Z,31.50
2018-01-12T17:09:19.549Z,32.37
2018-01-12T17:11:46.280Z,25.43
2018-01-12T17:14:13.019Z,27.37
2018-01-12T17:16:39.724Z,35.07
2018-01-12T17:19:06.432Z,31.50
2018-01-12T17:21:33.120Z,33.87
2018-01-12T17:23:59.812Z,28.87
2018-01-12T17:26:26.558Z,28.77
2018-01-12T17:29:11.604Z,32.13
2018-01-12T17:31:38.880Z,32.07
2018-01-12T17:34:05.589Z,32.03
2018-01-12T17:39:10.537Z,28.63
2018-01-12T17:41:42.472Z,30.60
2018-01-12T17:46:43.306Z,29.40
2018-01-12T17:49:13.391Z,24.90
2018-01-12T17:51:40.710Z,29.87
2018-01-12T17:54:07.396Z,31.00
2018-01-12T17:56:34.180Z,18.67
2018-01-12T17:59:01.388Z,29.03
2018-01-12T18:01:35.403Z,30.03
2018-01-12T18:04:15.780Z,29.87
2018-01-12T18:07:00.533Z,31.60
2018-01-12T18:09:30.988Z,28.43
2018-01-12T18:14:44.864Z,27.57
2018-01-12T18:17:11.579Z,34.03
2018-01-12T18:19:38.288Z,27.47
2018-01-12T18:22:05.060Z,27.97
2018-01-12T18:24:31.741Z,29.43
2018-01-12T18:26:58.435Z,25.93
2018-01-12T18:29:25.193Z,23.43
2018-01-12T18:31:51.889Z,24.87
2018-01-12T18:34:18.589Z,25.57
2018-01-12T18:36:45.324Z,27.63
2018-01-12T18:39:12.040Z,27.40
2018-01-12T18:41:38.723Z,23.50
2018-01-12T18:44:05.453Z,24.67
2018-01-12T18:46:32.923Z,29.77
2018-01-12T18:48:59.648Z,26.37
2018-01-12T18:51:26.388Z,25.90
2018-01-12T18:53:53.102Z,22.53
2018-01-12T18:56:28.742Z,28.77
2018-01-12T18:58:58.789Z,24.40
2018-01-12T19:04:23.223Z,27.60
2018-01-12T19:06:49.921Z,23.07
2018-01-12T19:09:16.607Z,24.70
2018-01-12T19:11:43.315Z,23.63
2018-01-12T19:14:10.009Z,27.20
2018-01-12T19:16:36.983Z,32.00
2018-01-12T19:19:03.711Z,25.57
2018-01-12T19:21:30.395Z,27.30
2018-01-12T19:23:57.085Z,24.57
2018-01-12T19:26:24.815Z,26.37
2018-01-12T19:28:51.631Z,25.77
2018-01-12T19:31:18.321Z,19.40
2018-01-12T19:34:01.317Z,25.13
2018-01-12T19:36:29.695Z,19.87
2018-01-12T19:38:56.410Z,24.90
2018-01-12T19:41:24.005Z,23.57
2018-01-12T19:43:50.703Z,26.53
2018-01-12T19:46:17.419Z,26.10
2018-01-12T19:48:47.066Z,22.83
2018-01-12T19:51:13.815Z,17.77
2018-01-12T19:53:41.755Z,24.93
2018-01-12T19:56:08.493Z,20.70
2018-01-12T19:58:35.215Z,19.97
2018-01-12T20:01:01.999Z,21.77
2018-01-12T20:03:28.714Z,23.67
2018-01-12T20:05:55.493Z,16.37
2018-01-12T20:08:22.222Z,22.30
2018-01-12T20:10:48.897Z,21.60
2018-01-12T20:13:15.599Z,22.50
2018-01-12T20:15:42.322Z,23.73
2018-01-12T20:18:09.015Z,21.00
2018-01-12T20:20:35.953Z,22.43
2018-01-12T20:23:02.717Z,23.50
2018-01-12T20:25:29.403Z,24.17
2018-01-12T20:27:56.359Z,21.80
2018-01-12T20:30:23.388Z,19.83
2018-01-12T20:32:50.115Z,22.30
2018-01-12T20:35:16.799Z,15.90
2018-01-12T20:37:43.505Z,23.23
2018-01-12T20:40:10.490Z,20.77
2018-01-12T20:42:37.257Z,21.83
2018-01-12T20:45:04.225Z,22.87
2018-01-12T20:47:30.960Z,17.40
2018-01-12T20:49:57.668Z,22.50
2018-01-12T20:52:37.024Z,20.87
2018-01-12T20:55:03.727Z,17.87
2018-01-12T20:57:30.550Z,20.33
2018-01-12T20:59:57.254Z,21.63
2018-01-12T21:02:24.837Z,23.20
2018-01-12T21:04:51.533Z,22.77
2018-01-12T21:07:18.242Z,21.97
2018-01-12T21:09:44.940Z,19.43
2018-01-12T21:12:11.630Z,22.60
2018-01-12T21:14:39.216Z,23.00
2018-01-12T21:17:05.910Z,22.43
2018-01-12T21:19:32.594Z,21.70
2018-01-12T21:21:59.314Z,21.80
2018-01-12T21:24:25.997Z,17.50
2018-01-12T21:26:52.792Z,20.33
2018-01-12T21:29:19.513Z,23.23
2018-01-12T21:31:46.204Z,25.17
2018-01-12T21:34:12.910Z,16.80
2018-01-12T21:36:39.672Z,17.27
2018-01-12T21:39:06.374Z,20.07
2018-01-12T21:41:33.068Z,17.60
2018-01-12T21:43:59.841Z,18.63
2018-01-12T21:46:27.548Z,19.90
2018-01-12T21:49:01.482Z,20.23
2018-01-12T21:51:28.172Z,21.43
2018-01-12T21:53:54.867Z,22.27
2018-01-12T21:56:21.584Z,14.70
2018-01-12T21:58:48.284Z,20.27
2018-01-12T22:01:15.008Z,18.00
2018-01-12T22:03:41.726Z,19.70
2018-01-12T22:06:08.428Z,18.83
2018-01-12T22:08:35.129Z,20.00
2018-01-12T22:11:01.860Z,19.57
2018-01-12T22:13:47.244Z,23.70
2018-01-12T22:16:14.975Z,18.83
2018-01-12T22:18:49.612Z,24.87
2018-01-12T22:21:16.336Z,19.53
2018-01-12T22:26:29.500Z,24.17
2018-01-12T22:28:57.912Z,24.77
2018-01-12T22:31:25.598Z,23.83
2018-01-12T22:33:52.302Z,24.27
2018-01-12T22:36:24.522Z,21.17
2018-01-12T22:38:51.272Z,22.47
2018-01-12T22:41:29.134Z,24.33
2018-01-12T22:43:55.820Z,24.40
2018-01-12T22:46:24.510Z,25.23
2018-01-12T22:48:51.281Z,18.70
2018-01-12T22:54:03.452Z,20.73
2018-01-12T22:56:44.306Z,21.73
2018-01-12T22:59:11.066Z,19.37
2018-01-12T23:01:37.754Z,16.13
2018-01-12T23:04:06.450Z,17.50
2018-01-12T23:06:48.314Z,16.47
2018-01-12T23:12:04.089Z,16.17
2018-01-12T23:14:30.796Z,15.23
2018-01-12T23:16:57.493Z,17.13
2018-01-12T23:19:29.724Z,14.50
2018-01-12T23:21:56.434Z,14.53
2018-01-12T23:24:23.138Z,18.47
2018-01-12T23:29:44.802Z,19.10
2018-01-12T23:32:18.746Z,16.23
2018-01-12T23:34:53.418Z,16.63
2018-01-12T23:37:21.158Z,14.63
2018-01-12T23:39:49.838Z,14.07
2018-01-12T23:42:16.536Z,18.07
2018-01-12T23:44:43.254Z,15.07
2018-01-12T23:47:20.262Z,17.43
2018-01-12T23:49:48.971Z,16.87
2018-01-12T23:52:15.758Z,19.03
2018-01-12T23:54:51.914Z,19.00
2018-01-12T23:57:19.598Z,16.70
2018-01-12T23:59:46.311Z,17.80
